Time;durP1;ratioP1;P1;durP2;ratioP2;P2;SDS_P1;SDS_P2;PMS_P1;PMS_P2;Temp;Humidity;BMP_temperature;BMP_pressure;BME280_temperature;BME280_humidity;BME280_pressure;Samples;Min_cycle;Max_cycle;Signal;HPM_P1;HPM_P2
2021/06/07 00:02:25;;;;;;;;;8.75;8.00;;;;;;;;3724348;38;19773;-62
2021/06/07 00:04:50;;;;;;;;;8.25;8.00;;;;;;;;3724912;38;17636;-61
2021/06/07 00:07:16;;;;;;;;;7.50;7.50;;;;;;;;3724566;38;17647;-62
2021/06/07 00:09:43;;;;;;;;;8.00;8.00;;;;;;;;3725118;37;17646;-64
2021/06/07 00:12:14;;;;;;;;;9.50;8.75;;;;;;;;3724975;37;19769;-62
2021/06/07 00:14:41;;;;;;;;;8.00;8.00;;;;;;;;3724925;38;19797;-63
2021/06/07 00:17:07;;;;;;;;;10.75;10.50;;;;;;;;3724541;37;19764;-62
2021/06/07 00:19:35;;;;;;;;;9.00;8.25;;;;;;;;3724892;37;19756;-62
2021/06/07 00:22:03;;;;;;;;;7.25;7.25;;;;;;;;3725099;37;19770;-62
2021/06/07 00:24:31;;;;;;;;;8.00;8.00;;;;;;;;3725108;38;19745;-62
2021/06/07 00:26:57;;;;;;;;;12.25;12.25;;;;;;;;3724947;37;19715;-64
2021/06/07 00:29:23;;;;;;;;;6.00;5.25;;;;;;;;3725146;38;19811;-64
2021/06/07 00:31:49;;;;;;;;;9.25;9.00;;;;;;;;3724653;37;17608;-63
2021/06/07 00:34:20;;;;;;;;;9.25;8.75;;;;;;;;3725247;37;19732;-64
2021/06/07 00:36:45;;;;;;;;;9.50;9.50;;;;;;;;3725251;37;17606;-62
2021/06/07 00:39:13;;;;;;;;;9.00;8.75;;;;;;;;3725066;38;19737;-62
2021/06/07 00:41:40;;;;;;;;;7.00;6.25;;;;;;;;3724958;38;17599;-63
2021/06/07 00:44:11;;;;;;;;;11.50;9.25;;;;;;;;3725269;38;19719;-63
2021/06/07 00:46:38;;;;;;;;;11.75;9.00;;;;;;;;3725101;37;19777;-63
2021/06/07 00:49:04;;;;;;;;;8.00;8.00;;;;;;;;3727050;38;19741;-63
2021/06/07 00:51:30;;;;;;;;;12.25;11.50;;;;;;;;3725024;38;19731;-61
2021/06/07 00:54:01;;;;;;;;;12.50;11.00;;;;;;;;3725113;37;19745;-62
2021/06/07 00:56:30;;;;;;;;;8.00;8.00;;;;;;;;3725023;37;17563;-62
2021/06/07 00:58:56;;;;;;;;;8.50;7.75;;;;;;;;3724866;37;19713;-62
2021/06/07 01:01:23;;;;;;;;;10.25;9.25;;;;;;;;3725009;38;19688;-65
2021/06/07 01:03:50;;;;;;;;;11.50;11.00;;;;;;;;3724996;37;19727;-62
2021/06/07 01:06:16;;;;;;;;;8.25;8.25;;;;;;;;3725070;38;19738;-62
2021/06/07 01:08:42;;;;;;;;;8.50;8.00;;;;;;;;3725001;38;19681;-62
2021/06/07 01:11:08;;;;;;;;;8.00;7.00;;;;;;;;3725046;37;17541;-62
2021/06/07 01:13:35;;;;;;;;;9.00;8.50;;;;;;;;3725076;37;19679;-62
2021/06/07 01:16:00;;;;;;;;;7.50;6.75;;;;;;;;3725398;37;17548;-62
2021/06/07 01:18:29;;;;;;;;;11.00;10.50;;;;;;;;3725284;37;19694;-62
2021/06/07 01:20:56;;;;;;;;;9.50;9.50;;;;;;;;3725069;37;17539;-63
2021/06/07 01:23:22;;;;;;;;;7.00;7.00;;;;;;;;3724972;37;19691;-62
2021/06/07 01:25:50;;;;;;;;;8.50;8.00;;;;;;;;3725057;38;19649;-62
2021/06/07 01:28:18;;;;;;;;;8.00;8.00;;;;;;;;3724712;37;17543;-63
2021/06/07 01:30:46;;;;;;;;;9.50;9.25;;;;;;;;3724508;37;19676;-62
2021/06/07 01:33:14;;;;;;;;;10.75;10.75;;;;;;;;3725006;37;19641;-61
2021/06/07 01:35:42;;;;;;;;;8.00;8.00;;;;;;;;3725022;38;19698;-61
2021/06/07 01:38:09;;;;;;;;;8.00;8.00;;;;;;;;3724666;37;19653;-64
2021/06/07 01:40:36;;;;;;;;;9.00;9.00;;;;;;;;3724748;38;19655;-62
2021/06/07 01:43:03;;;;;;;;;8.00;7.00;;;;;;;;3724907;37;19691;-61
2021/06/07 01:45:30;;;;;;;;;8.00;8.00;;;;;;;;3724965;38;19638;-62
2021/06/07 01:48:01;;;;;;;;;9.00;8.00;;;;;;;;3724962;38;19634;-62
2021/06/07 01:50:32;;;;;;;;;9.75;8.75;;;;;;;;3724635;37;19620;-62
2021/06/07 01:52:58;;;;;;;;;8.50;8.50;;;;;;;;3724638;37;19655;-63
2021/06/07 01:55:33;;;;;;;;;10.00;9.00;;;;;;;;3724710;37;19636;-62
2021/06/07 01:58:00;;;;;;;;;10.50;10.00;;;;;;;;3725018;37;20632;-63
2021/06/07 02:00:40;;;;;;;;;8.75;8.75;;;;;;;;3725088;38;20599;-61
2021/06/07 02:03:07;;;;;;;;;8.00;8.00;;;;;;;;3724900;37;19728;-61
2021/06/07 02:05:33;;;;;;;;;6.00;6.00;;;;;;;;3725063;38;20607;-64
2021/06/07 02:08:00;;;;;;;;;10.00;9.25;;;;;;;;3725030;37;19612;-63
2021/06/07 02:10:28;;;;;;;;;8.00;8.00;;;;;;;;3725080;38;20643;-64
2021/06/07 02:12:58;;;;;;;;;8.75;8.75;;;;;;;;3731111;37;20591;-62
2021/06/07 02:15:29;;;;;;;;;8.50;8.50;;;;;;;;3740750;38;20591;-63
2021/06/07 02:18:00;;;;;;;;;9.00;9.00;;;;;;;;3740460;37;20607;-62
2021/06/07 02:20:27;;;;;;;;;10.50;10.50;;;;;;;;3740525;38;20601;-63
2021/06/07 02:22:55;;;;;;;;;7.50;7.50;;;;;;;;3729086;37;20632;-66
2021/06/07 02:25:24;;;;;;;;;10.00;10.00;;;;;;;;3724845;38;20605;-63
2021/06/07 02:27:52;;;;;;;;;9.75;9.75;;;;;;;;3725446;38;20583;-62
2021/06/07 02:30:21;;;;;;;;;10.50;10.50;;;;;;;;3725311;37;18432;-63
2021/06/07 02:32:47;;;;;;;;;9.25;8.25;;;;;;;;3725382;37;20596;-63
2021/06/07 02:35:18;;;;;;;;;11.50;11.00;;;;;;;;3725710;38;20588;-62
2021/06/07 02:37:45;;;;;;;;;9.00;9.00;;;;;;;;3725172;37;20626;-62
2021/06/07 02:40:13;;;;;;;;;12.00;11.75;;;;;;;;3724962;38;20548;-63
2021/06/07 02:42:40;;;;;;;;;12.00;11.25;;;;;;;;3724739;37;20601;-61
2021/06/07 02:45:11;;;;;;;;;9.00;9.00;;;;;;;;3725085;38;20618;-64
2021/06/07 02:47:38;;;;;;;;;33.50;27.25;;;;;;;;3724811;38;20576;-61
2021/06/07 02:50:05;;;;;;;;;26.75;25.50;;;;;;;;3727592;38;20607;-62
2021/06/07 02:52:32;;;;;;;;;17.75;17.50;;;;;;;;3725967;37;20620;-61
2021/06/07 02:55:01;;;;;;;;;21.00;20.00;;;;;;;;3725253;37;20587;-61
2021/06/07 02:57:28;;;;;;;;;16.25;16.25;;;;;;;;3725804;37;20612;-62
2021/06/07 02:59:54;;;;;;;;;38.25;34.75;;;;;;;;3726286;37;20588;-62
2021/06/07 03:02:20;;;;;;;;;13.75;13.75;;;;;;;;3725059;37;20601;-63
2021/06/07 03:04:46;;;;;;;;;14.75;14.75;;;;;;;;3725118;37;18410;-63
2021/06/07 03:07:13;;;;;;;;;11.75;11.75;;;;;;;;3725404;37;18402;-63
2021/06/07 03:09:39;;;;;;;;;10.25;10.25;;;;;;;;3726948;37;18410;-62
2021/06/07 03:12:06;;;;;;;;;10.50;10.00;;;;;;;;3726337;37;20550;-63
2021/06/07 03:14:32;;;;;;;;;12.50;11.75;;;;;;;;3732899;38;20550;-63
2021/06/07 03:16:59;;;;;;;;;13.25;10.50;;;;;;;;3728232;38;20588;-64
2021/06/07 03:19:25;;;;;;;;;10.00;10.00;;;;;;;;3725674;37;20544;-63
2021/06/07 03:21:51;;;;;;;;;14.00;11.75;;;;;;;;3725498;37;20598;-62
2021/06/07 03:24:17;;;;;;;;;13.50;12.00;;;;;;;;3725399;37;18372;-61
2021/06/07 03:26:50;;;;;;;;;35.25;32.50;;;;;;;;3725345;38;18355;-62
2021/06/07 03:29:17;;;;;;;;;36.25;33.25;;;;;;;;3725903;37;18375;-62
2021/06/07 03:31:44;;;;;;;;;22.00;20.75;;;;;;;;3725242;37;20561;-62
2021/06/07 03:34:13;;;;;;;;;15.00;14.25;;;;;;;;3725614;37;20559;-65
2021/06/07 03:36:39;;;;;;;;;16.25;15.25;;;;;;;;3725487;38;20554;-61
2021/06/07 03:39:07;;;;;;;;;16.25;15.75;;;;;;;;3725377;37;18349;-62
2021/06/07 03:41:37;;;;;;;;;15.00;15.00;;;;;;;;3724919;37;18365;-63
2021/06/07 03:44:04;;;;;;;;;14.75;14.75;;;;;;;;3725271;37;20547;-60
2021/06/07 03:46:30;;;;;;;;;16.00;14.50;;;;;;;;3725140;38;18347;-60
2021/06/07 03:48:56;;;;;;;;;16.75;16.00;;;;;;;;3724953;37;20533;-62
2021/06/07 03:51:22;;;;;;;;;10.25;10.25;;;;;;;;3724960;37;18344;-61
2021/06/07 03:53:50;;;;;;;;;9.25;9.00;;;;;;;;3725206;37;18346;-62
2021/06/07 03:56:20;;;;;;;;;11.25;10.75;;;;;;;;3724791;37;20473;-61
2021/06/07 03:58:46;;;;;;;;;12.50;12.00;;;;;;;;3725063;38;20520;-61
2021/06/07 04:01:12;;;;;;;;;12.50;12.50;;;;;;;;3725161;38;18329;-60
2021/06/07 04:03:39;;;;;;;;;9.75;9.75;;;;;;;;3725103;38;20499;-62
2021/06/07 04:06:05;;;;;;;;;9.25;9.25;;;;;;;;3725190;38;20493;-61
2021/06/07 04:08:31;;;;;;;;;15.50;15.50;;;;;;;;3725134;38;18313;-62
2021/06/07 04:11:01;;;;;;;;;11.75;11.75;;;;;;;;3725076;38;18295;-63
2021/06/07 04:13:27;;;;;;;;;10.25;10.25;;;;;;;;3725194;38;18324;-62
2021/06/07 04:15:56;;;;;;;;;10.75;10.75;;;;;;;;3725282;38;20491;-61
2021/06/07 04:18:22;;;;;;;;;12.25;12.25;;;;;;;;3725274;38;20560;-60
2021/06/07 04:20:48;;;;;;;;;12.25;12.25;;;;;;;;3725206;38;20478;-60
2021/06/07 04:23:14;;;;;;;;;10.25;9.75;;;;;;;;3725158;37;20494;-62
2021/06/07 04:25:41;;;;;;;;;11.00;11.00;;;;;;;;3725476;37;18286;-64
2021/06/07 04:28:07;;;;;;;;;9.75;9.75;;;;;;;;3725257;37;18280;-61
2021/06/07 04:30:33;;;;;;;;;10.75;9.75;;;;;;;;3725258;37;20472;-62
2021/06/07 04:33:00;;;;;;;;;12.75;12.00;;;;;;;;3724881;38;18267;-60
2021/06/07 04:35:26;;;;;;;;;10.75;10.50;;;;;;;;3725195;38;20463;-61
2021/06/07 04:37:54;;;;;;;;;14.50;13.25;;;;;;;;3725503;38;20455;-63
2021/06/07 04:40:49;;;;;;;;;12.75;11.50;;;;;;;;3728717;38;20473;-66
2021/06/07 04:43:15;;;;;;;;;11.00;10.50;;;;;;;;3725262;37;20472;-64
2021/06/07 04:45:44;;;;;;;;;12.25;12.00;;;;;;;;3725265;38;20457;-65
2021/06/07 04:48:15;;;;;;;;;10.50;10.00;;;;;;;;3724938;37;18266;-65
2021/06/07 04:50:41;;;;;;;;;11.00;11.00;;;;;;;;3725074;38;20435;-63
2021/06/07 04:53:09;;;;;;;;;9.00;8.50;;;;;;;;3725563;38;20433;-62
2021/06/07 04:55:40;;;;;;;;;10.50;10.50;;;;;;;;3725345;38;20389;-64
2021/06/07 04:58:13;;;;;;;;;12.25;9.25;;;;;;;;3725411;37;20449;-63
2021/06/07 05:00:42;;;;;;;;;11.25;11.00;;;;;;;;3724802;38;20400;-63
2021/06/07 05:03:08;;;;;;;;;9.50;9.25;;;;;;;;3725080;37;20462;-64
2021/06/07 05:05:35;;;;;;;;;13.00;13.00;;;;;;;;3725213;37;20442;-63
2021/06/07 05:08:03;;;;;;;;;14.25;14.25;;;;;;;;3724994;37;20436;-62
2021/06/07 05:10:29;;;;;;;;;10.25;10.25;;;;;;;;3725264;37;20432;-66
2021/06/07 05:12:55;;;;;;;;;11.25;11.25;;;;;;;;3725209;37;20426;-63
2021/06/07 05:15:24;;;;;;;;;9.75;9.75;;;;;;;;3725081;37;20447;-63
2021/06/07 05:17:50;;;;;;;;;9.50;9.25;;;;;;;;3724851;38;20363;-63
2021/06/07 05:20:17;;;;;;;;;12.75;12.75;;;;;;;;3725360;37;20408;-64
2021/06/07 05:22:43;;;;;;;;;7.75;7.75;;;;;;;;3725137;37;20415;-63
2021/06/07 05:25:10;;;;;;;;;11.00;10.50;;;;;;;;3725268;37;20348;-63
2021/06/07 05:27:36;;;;;;;;;9.00;9.00;;;;;;;;3725174;38;20393;-64
2021/06/07 05:30:06;;;;;;;;;8.75;8.75;;;;;;;;3725241;38;20371;-67
2021/06/07 05:32:34;;;;;;;;;9.00;9.00;;;;;;;;3726782;38;20376;-61
2021/06/07 05:35:00;;;;;;;;;7.00;7.00;;;;;;;;3725978;37;20384;-59
2021/06/07 05:37:26;;;;;;;;;7.50;7.50;;;;;;;;3725974;38;20337;-61
2021/06/07 05:39:52;;;;;;;;;8.25;8.25;;;;;;;;3725801;37;20332;-63
2021/06/07 05:42:18;;;;;;;;;9.00;9.00;;;;;;;;3725975;37;18194;-62
2021/06/07 05:44:44;;;;;;;;;9.00;9.00;;;;;;;;3725816;38;20359;-62
2021/06/07 05:47:11;;;;;;;;;8.00;7.25;;;;;;;;3725932;37;20282;-62
2021/06/07 05:49:39;;;;;;;;;6.00;5.00;;;;;;;;3725261;38;18169;-64
2021/06/07 05:52:06;;;;;;;;;9.50;9.00;;;;;;;;3725694;38;20263;-62
2021/06/07 05:54:33;;;;;;;;;8.00;7.75;;;;;;;;3725682;37;20270;-63
2021/06/07 05:56:59;;;;;;;;;6.25;4.75;;;;;;;;3725633;38;20264;-61
2021/06/07 05:59:25;;;;;;;;;7.50;7.00;;;;;;;;3725823;37;20263;-60
2021/06/07 06:01:52;;;;;;;;;5.00;5.00;;;;;;;;3726034;37;20257;-63
2021/06/07 06:04:18;;;;;;;;;7.00;7.00;;;;;;;;3725898;37;18150;-60
2021/06/07 06:06:44;;;;;;;;;6.00;6.00;;;;;;;;3725521;37;20245;-63
2021/06/07 06:09:10;;;;;;;;;8.75;8.25;;;;;;;;3726223;37;18169;-63
2021/06/07 06:11:36;;;;;;;;;7.75;7.00;;;;;;;;3725912;38;18150;-62
2021/06/07 06:14:02;;;;;;;;;8.00;8.00;;;;;;;;3725817;38;20213;-63
2021/06/07 06:16:28;;;;;;;;;7.00;7.00;;;;;;;;3725390;38;20227;-63
2021/06/07 06:18:55;;;;;;;;;5.50;5.50;;;;;;;;3725548;37;20221;-61
2021/06/07 06:21:25;;;;;;;;;7.50;7.50;;;;;;;;3725359;37;20231;-60
2021/06/07 06:23:56;;;;;;;;;8.00;8.00;;;;;;;;3725554;37;18145;-61
2021/06/07 06:26:22;;;;;;;;;5.50;5.50;;;;;;;;3725206;38;20199;-61
2021/06/07 06:28:49;;;;;;;;;7.75;7.75;;;;;;;;3725388;38;20501;-61
2021/06/07 06:31:17;;;;;;;;;8.25;8.00;;;;;;;;3725401;37;20212;-63
2021/06/07 06:33:43;;;;;;;;;5.50;5.50;;;;;;;;3726355;38;20209;-66
2021/06/07 06:36:10;;;;;;;;;6.50;6.25;;;;;;;;3726055;37;20276;-64
2021/06/07 06:38:36;;;;;;;;;6.00;6.00;;;;;;;;3725266;37;20177;-63
2021/06/07 06:41:04;;;;;;;;;7.25;7.25;;;;;;;;3725576;38;20209;-67
2021/06/07 06:43:30;;;;;;;;;6.75;6.75;;;;;;;;3725219;37;20186;-70
2021/06/07 06:45:56;;;;;;;;;6.50;6.00;;;;;;;;3725463;38;20238;-70
2021/06/07 06:48:21;;;;;;;;;7.25;7.25;;;;;;;;3725678;38;20256;-68
2021/06/07 06:50:47;;;;;;;;;8.25;8.25;;;;;;;;3725509;37;18103;-64
2021/06/07 06:53:19;;;;;;;;;7.00;7.00;;;;;;;;3732779;37;18122;-67
2021/06/07 06:55:48;;;;;;;;;7.00;7.00;;;;;;;;3735190;37;18111;-65
2021/06/07 06:58:14;;;;;;;;;6.00;5.00;;;;;;;;3735689;37;20229;-64
2021/06/07 07:00:40;;;;;;;;;9.00;9.00;;;;;;;;3725727;37;20253;-66
2021/06/07 07:03:10;;;;;;;;;7.25;6.75;;;;;;;;3725315;38;20238;-66
2021/06/07 07:05:36;;;;;;;;;7.25;7.25;;;;;;;;3724601;37;20251;-66
2021/06/07 07:08:02;;;;;;;;;7.50;6.75;;;;;;;;3724505;38;20235;-63
2021/06/07 07:10:28;;;;;;;;;6.00;6.00;;;;;;;;3725351;37;20240;-65
2021/06/07 07:12:54;;;;;;;;;8.00;7.00;;;;;;;;3725307;38;20220;-64
2021/06/07 07:15:20;;;;;;;;;8.25;8.25;;;;;;;;3725473;38;20215;-67
2021/06/07 07:17:46;;;;;;;;;4.75;4.75;;;;;;;;3725145;37;18065;-68
2021/06/07 07:20:15;;;;;;;;;7.00;7.00;;;;;;;;3725286;38;18084;-68
2021/06/07 07:22:41;;;;;;;;;6.50;6.50;;;;;;;;3725176;38;20158;-68
2021/06/07 07:25:07;;;;;;;;;6.00;6.00;;;;;;;;3725504;37;20222;-64
2021/06/07 07:27:35;;;;;;;;;7.00;6.00;;;;;;;;3725242;37;20222;-62
2021/06/07 07:30:05;;;;;;;;;5.00;5.00;;;;;;;;3725221;37;20196;-64
2021/06/07 07:32:32;;;;;;;;;6.75;6.75;;;;;;;;3725010;37;20208;-65
2021/06/07 07:34:58;;;;;;;;;6.25;6.25;;;;;;;;3724805;37;20185;-64
2021/06/07 07:37:24;;;;;;;;;8.00;7.00;;;;;;;;3725096;38;20176;-65
2021/06/07 07:39:50;;;;;;;;;8.00;7.50;;;;;;;;3725248;38;20202;-66
2021/06/07 07:42:16;;;;;;;;;5.00;5.00;;;;;;;;3725358;38;18052;-65
2021/06/07 07:44:42;;;;;;;;;6.25;6.00;;;;;;;;3725380;37;20193;-66
2021/06/07 07:47:08;;;;;;;;;6.00;6.00;;;;;;;;3725727;37;18054;-66
2021/06/07 07:49:35;;;;;;;;;6.00;6.00;;;;;;;;3725262;37;18016;-66
2021/06/07 07:52:02;;;;;;;;;7.00;7.00;;;;;;;;3725246;38;20176;-66
2021/06/07 07:54:27;;;;;;;;;7.00;6.00;;;;;;;;3725476;38;20167;-66
2021/06/07 07:56:53;;;;;;;;;5.00;5.00;;;;;;;;3725588;37;20164;-65
2021/06/07 07:59:19;;;;;;;;;6.00;5.00;;;;;;;;3725350;37;18002;-66
2021/06/07 08:01:46;;;;;;;;;7.00;7.00;;;;;;;;3724920;38;18026;-66
2021/06/07 08:04:12;;;;;;;;;7.00;7.00;;;;;;;;3724912;38;20176;-66
2021/06/07 08:06:38;;;;;;;;;6.00;6.00;;;;;;;;3725299;38;20158;-67
2021/06/07 08:09:04;;;;;;;;;5.50;5.50;;;;;;;;3725109;38;20167;-66
2021/06/07 08:11:39;;;;;;;;;6.50;6.50;;;;;;;;3725092;37;20128;-66
2021/06/07 08:14:06;;;;;;;;;7.75;7.75;;;;;;;;3725250;38;20156;-66
2021/06/07 08:16:32;;;;;;;;;4.25;4.25;;;;;;;;3725286;37;20180;-67
2021/06/07 08:18:58;;;;;;;;;7.00;7.00;;;;;;;;3725144;37;20093;-66
2021/06/07 08:21:25;;;;;;;;;6.75;6.75;;;;;;;;3725326;37;20114;-64
2021/06/07 08:23:51;;;;;;;;;5.00;5.00;;;;;;;;3725569;38;20114;-66
2021/06/07 08:26:17;;;;;;;;;7.50;7.50;;;;;;;;3725604;37;17963;-67
2021/06/07 08:28:42;;;;;;;;;6.75;6.75;;;;;;;;3725341;38;17951;-67
2021/06/07 08:31:08;;;;;;;;;8.00;7.00;;;;;;;;3725416;38;17980;-66
2021/06/07 08:33:40;;;;;;;;;7.00;7.00;;;;;;;;3725149;38;17976;-65
2021/06/07 08:36:09;;;;;;;;;5.25;5.25;;;;;;;;3725247;37;17946;-67
2021/06/07 08:38:37;;;;;;;;;4.50;4.50;;;;;;;;3725381;38;20149;-67
2021/06/07 08:41:04;;;;;;;;;7.00;7.00;;;;;;;;3725271;37;20087;-66
2021/06/07 08:43:30;;;;;;;;;7.00;7.00;;;;;;;;3725416;37;20098;-63
2021/06/07 08:45:57;;;;;;;;;7.00;6.00;;;;;;;;3725440;37;17930;-64
2021/06/07 08:48:22;;;;;;;;;7.00;6.00;;;;;;;;3725646;37;20075;-65
2021/06/07 08:50:50;;;;;;;;;6.00;6.00;;;;;;;;3726205;38;17951;-65
2021/06/07 08:53:16;;;;;;;;;6.00;6.00;;;;;;;;3725779;37;17942;-67
2021/06/07 08:55:42;;;;;;;;;5.25;5.25;;;;;;;;3727482;38;20058;-67
2021/06/07 08:58:11;;;;;;;;;6.00;6.00;;;;;;;;3728750;37;20140;-66
2021/06/07 09:00:40;;;;;;;;;5.75;5.75;;;;;;;;3728982;38;20045;-64
2021/06/07 09:03:11;;;;;;;;;6.50;6.50;;;;;;;;3729916;37;20061;-64
2021/06/07 09:05:39;;;;;;;;;2.00;2.00;;;;;;;;3729822;37;20033;-64
2021/06/07 09:08:06;;;;;;;;;7.00;7.00;;;;;;;;3728565;37;20061;-64
2021/06/07 09:10:35;;;;;;;;;7.00;7.00;;;;;;;;3728496;37;20054;-63
2021/06/07 09:13:04;;;;;;;;;9.50;9.00;;;;;;;;3725435;38;20024;-63
2021/06/07 09:15:40;;;;;;;;;8.00;7.00;;;;;;;;3725367;37;20033;-64
2021/06/07 09:18:08;;;;;;;;;7.50;7.25;;;;;;;;3725055;37;20020;-64
2021/06/07 09:20:34;;;;;;;;;6.75;6.00;;;;;;;;3726880;38;20056;-66
2021/06/07 09:23:02;;;;;;;;;7.25;6.25;;;;;;;;3725953;37;20027;-65
2021/06/07 09:25:29;;;;;;;;;8.25;8.25;;;;;;;;3725650;37;20041;-64
2021/06/07 09:28:30;;;;;;;;;7.50;6.75;;;;;;;;3727495;37;20036;-65
2021/06/07 09:30:59;;;;;;;;;5.00;5.00;;;;;;;;3725390;38;20053;-63
2021/06/07 09:33:49;;;;;;;;;7.00;6.00;;;;;;;;3725879;38;20070;-64
2021/06/07 09:36:25;;;;;;;;;5.25;5.25;;;;;;;;3728117;37;20039;-66
2021/06/07 09:39:24;;;;;;;;;5.50;5.50;;;;;;;;3725319;38;20008;-65
2021/06/07 09:41:59;;;;;;;;;6.50;6.50;;;;;;;;3725096;38;20095;-64
2021/06/07 09:44:43;;;;;;;;;8.50;8.50;;;;;;;;3725318;38;20069;-64
2021/06/07 09:47:25;;;;;;;;;4.00;4.00;;;;;;;;3725430;38;20025;-66
2021/06/07 09:50:08;;;;;;;;;8.00;6.75;;;;;;;;3725361;38;20018;-63
2021/06/07 09:52:44;;;;;;;;;6.25;5.25;;;;;;;;3725117;37;20018;-63
2021/06/07 09:55:23;;;;;;;;;8.50;8.50;;;;;;;;3725973;37;19982;-64
2021/06/07 09:57:55;;;;;;;;;5.75;5.75;;;;;;;;3725177;38;20011;-63
2021/06/07 10:00:31;;;;;;;;;7.00;7.00;;;;;;;;3725000;38;20008;-64
2021/06/07 10:03:12;;;;;;;;;6.00;6.00;;;;;;;;3725283;37;19999;-64
2021/06/07 10:05:43;;;;;;;;;7.00;7.00;;;;;;;;3725169;37;19966;-64
2021/06/07 10:08:09;;;;;;;;;7.25;7.25;;;;;;;;3725315;38;19985;-62
2021/06/07 10:10:35;;;;;;;;;7.50;7.50;;;;;;;;3725234;38;19962;-63
2021/06/07 10:13:07;;;;;;;;;7.25;7.25;;;;;;;;3725314;37;17823;-64
2021/06/07 10:15:42;;;;;;;;;5.50;5.50;;;;;;;;3725261;37;19960;-62
2021/06/07 10:18:10;;;;;;;;;3.00;3.00;;;;;;;;3725228;38;19999;-64
2021/06/07 10:20:49;;;;;;;;;6.00;6.00;;;;;;;;3725228;37;19959;-64
2021/06/07 10:23:18;;;;;;;;;5.00;5.00;;;;;;;;3725160;38;20075;-64
2021/06/07 10:25:44;;;;;;;;;5.00;5.00;;;;;;;;3724855;37;20028;-63
2021/06/07 10:28:10;;;;;;;;;6.00;6.00;;;;;;;;3725264;37;20054;-64
2021/06/07 10:30:39;;;;;;;;;6.00;6.00;;;;;;;;3724727;37;20009;-63
2021/06/07 10:33:23;;;;;;;;;5.00;5.00;;;;;;;;3724921;37;19974;-64
2021/06/07 10:35:49;;;;;;;;;4.00;4.00;;;;;;;;3725316;37;20030;-64
2021/06/07 10:38:27;;;;;;;;;5.75;5.00;;;;;;;;3725552;38;20016;-63
2021/06/07 10:41:13;;;;;;;;;5.00;5.00;;;;;;;;3725086;37;20024;-62
2021/06/07 10:43:45;;;;;;;;;4.00;4.00;;;;;;;;3725523;37;19972;-65
2021/06/07 10:46:28;;;;;;;;;4.50;4.50;;;;;;;;3726072;37;19986;-64
2021/06/07 10:48:56;;;;;;;;;6.25;6.25;;;;;;;;3728464;37;19943;-65
2021/06/07 10:51:23;;;;;;;;;6.00;6.00;;;;;;;;3728156;37;19928;-64
2021/06/07 10:53:53;;;;;;;;;5.00;5.00;;;;;;;;3725235;37;20018;-63
2021/06/07 10:56:27;;;;;;;;;6.00;6.00;;;;;;;;3725144;37;19986;-64
2021/06/07 10:58:56;;;;;;;;;8.25;8.25;;;;;;;;3725095;37;20010;-62
2021/06/07 11:01:23;;;;;;;;;5.00;5.00;;;;;;;;3725352;37;19921;-64
2021/06/07 11:03:57;;;;;;;;;9.75;9.75;;;;;;;;3725180;37;20003;-63
2021/06/07 11:06:24;;;;;;;;;23.50;23.50;;;;;;;;3724898;37;19988;-63
2021/06/07 11:09:11;;;;;;;;;4.00;4.00;;;;;;;;3729549;38;19967;-65
2021/06/07 11:11:48;;;;;;;;;5.00;5.00;;;;;;;;3725793;37;17755;-63
2021/06/07 11:14:14;;;;;;;;;5.25;5.25;;;;;;;;3725279;37;19903;-65
2021/06/07 11:16:46;;;;;;;;;4.75;4.75;;;;;;;;3724939;37;19981;-64
2021/06/07 11:19:21;;;;;;;;;4.75;4.75;;;;;;;;3725518;37;19906;-64
2021/06/07 11:21:58;;;;;;;;;6.50;4.00;;;;;;;;3725430;38;19899;-63
2021/06/07 11:24:29;;;;;;;;;5.50;5.50;;;;;;;;3727337;38;19899;-63
2021/06/07 11:27:03;;;;;;;;;11.00;11.00;;;;;;;;3738144;37;19878;-64
2021/06/07 11:29:37;;;;;;;;;5.00;5.00;;;;;;;;3739092;37;19912;-63
2021/06/07 11:32:10;;;;;;;;;4.75;4.75;;;;;;;;3732004;38;19869;-63
2021/06/07 11:34:40;;;;;;;;;6.75;5.75;;;;;;;;3725589;38;19897;-64
2021/06/07 11:37:09;;;;;;;;;5.75;5.00;;;;;;;;3725348;37;19872;-64
2021/06/07 11:39:48;;;;;;;;;6.00;6.00;;;;;;;;3725704;38;19865;-66
2021/06/07 11:42:16;;;;;;;;;6.75;6.75;;;;;;;;3725882;37;19851;-63
2021/06/07 11:44:46;;;;;;;;;5.50;5.50;;;;;;;;3725917;37;19881;-64
2021/06/07 11:47:22;;;;;;;;;20.00;20.00;;;;;;;;3725377;37;19862;-64
2021/06/07 11:50:17;;;;;;;;;4.00;4.00;;;;;;;;3725396;37;19896;-63
2021/06/07 11:52:49;;;;;;;;;7.00;6.00;;;;;;;;3725257;37;19856;-63
2021/06/07 11:55:44;;;;;;;;;3.50;3.00;;;;;;;;3725291;38;19865;-64
2021/06/07 11:58:36;;;;;;;;;6.75;6.25;;;;;;;;3725384;37;19881;-63
2021/06/07 12:01:10;;;;;;;;;6.25;6.00;;;;;;;;3724980;37;19878;-63
2021/06/07 12:03:37;;;;;;;;;5.00;5.00;;;;;;;;3725309;38;19845;-64
2021/06/07 12:06:07;;;;;;;;;5.50;5.50;;;;;;;;3725770;37;19842;-66
2021/06/07 12:08:34;;;;;;;;;5.00;5.00;;;;;;;;3725696;37;19898;-63
2021/06/07 12:11:03;;;;;;;;;5.25;5.25;;;;;;;;3725557;38;19916;-65
2021/06/07 12:13:31;;;;;;;;;4.00;4.00;;;;;;;;3725417;38;17701;-62
2021/06/07 12:16:12;;;;;;;;;6.00;6.00;;;;;;;;3724788;38;19837;-63
2021/06/07 12:18:44;;;;;;;;;5.00;5.00;;;;;;;;3724812;38;19891;-63
2021/06/07 12:21:12;;;;;;;;;4.50;4.00;;;;;;;;3724879;38;19835;-65
2021/06/07 12:23:57;;;;;;;;;5.00;5.00;;;;;;;;3724851;38;19794;-64
2021/06/07 12:29:31;;;;;;;;;8.75;8.00;;;;;;;;3725599;37;19743;-64
2021/06/07 12:32:16;;;;;;;;;4.50;4.50;;;;;;;;3725513;37;19788;-65
2021/06/07 12:35:00;;;;;;;;;5.00;5.00;;;;;;;;3725012;37;20051;-64
2021/06/07 12:37:33;;;;;;;;;5.00;5.00;;;;;;;;3724932;38;19837;-64
2021/06/07 12:40:34;;;;;;;;;4.75;4.75;;;;;;;;3725346;37;19865;-65
2021/06/07 12:43:20;;;;;;;;;5.25;4.75;;;;;;;;3725436;37;19884;-66
2021/06/07 12:45:48;;;;;;;;;5.75;5.00;;;;;;;;3725199;37;19815;-65
2021/06/07 12:48:15;;;;;;;;;5.50;5.00;;;;;;;;3725161;37;19865;-64
2021/06/07 12:50:46;;;;;;;;;4.00;4.00;;;;;;;;3725707;37;19799;-68
2021/06/07 12:53:12;;;;;;;;;4.50;4.50;;;;;;;;3725513;38;19847;-65
2021/06/07 12:55:41;;;;;;;;;4.00;4.00;;;;;;;;3725380;37;19855;-65
2021/06/07 12:58:08;;;;;;;;;4.25;4.25;;;;;;;;3725057;38;19785;-64
2021/06/07 13:00:38;;;;;;;;;4.00;4.00;;;;;;;;3725349;38;19790;-63
2021/06/07 13:03:24;;;;;;;;;3.25;3.00;;;;;;;;3725212;38;19831;-63
2021/06/07 13:06:08;;;;;;;;;4.00;4.00;;;;;;;;3725373;38;19758;-60
2021/06/07 13:08:49;;;;;;;;;4.00;4.00;;;;;;;;3725311;38;19768;-64
2021/06/07 13:11:15;;;;;;;;;4.00;4.00;;;;;;;;3725295;37;19741;-62
2021/06/07 13:13:45;;;;;;;;;5.00;5.00;;;;;;;;3725268;38;19723;-61
2021/06/07 13:16:14;;;;;;;;;3.25;3.25;;;;;;;;3724951;37;19813;-63
2021/06/07 13:18:56;;;;;;;;;5.50;4.50;;;;;;;;3724909;38;19789;-65
2021/06/07 13:21:44;;;;;;;;;4.50;4.50;;;;;;;;3725351;37;19765;-61
2021/06/07 13:24:15;;;;;;;;;7.00;5.25;;;;;;;;3725140;37;19785;-63
2021/06/07 13:26:50;;;;;;;;;5.00;5.00;;;;;;;;3725422;37;19717;-61
2021/06/07 13:29:36;;;;;;;;;6.00;6.00;;;;;;;;3725258;37;19730;-62
2021/06/07 13:32:26;;;;;;;;;5.00;5.00;;;;;;;;3725224;37;19746;-62
2021/06/07 13:34:58;;;;;;;;;4.75;4.75;;;;;;;;3725101;38;19793;-61
2021/06/07 13:37:37;;;;;;;;;5.00;5.00;;;;;;;;3725393;38;19716;-63
2021/06/07 13:40:29;;;;;;;;;4.75;4.75;;;;;;;;3725280;38;19724;-61
2021/06/07 13:43:04;;;;;;;;;5.00;5.00;;;;;;;;3725269;38;19711;-62
2021/06/07 13:45:38;;;;;;;;;5.00;5.00;;;;;;;;3725301;37;19697;-62
2021/06/07 13:48:09;;;;;;;;;5.50;5.50;;;;;;;;3724899;38;19725;-62
2021/06/07 13:51:03;;;;;;;;;8.75;8.50;;;;;;;;3725379;37;19676;-62
2021/06/07 13:53:34;;;;;;;;;6.00;6.00;;;;;;;;3725928;38;19717;-63
2021/06/07 13:56:04;;;;;;;;;4.75;4.75;;;;;;;;3725477;38;19699;-62
2021/06/07 13:58:39;;;;;;;;;5.75;5.75;;;;;;;;3725173;38;19690;-64
2021/06/07 14:01:12;;;;;;;;;6.50;5.50;;;;;;;;3724710;37;19746;-63
2021/06/07 14:03:38;;;;;;;;;6.00;6.00;;;;;;;;3725262;37;19673;-63
2021/06/07 14:06:09;;;;;;;;;6.00;6.00;;;;;;;;3725069;37;19751;-63
2021/06/07 14:08:38;;;;;;;;;4.00;4.00;;;;;;;;3725067;37;19780;-65
2021/06/07 14:11:11;;;;;;;;;6.00;6.00;;;;;;;;3725400;38;19746;-61
2021/06/07 14:13:42;;;;;;;;;6.00;5.25;;;;;;;;3725340;37;19753;-61
2021/06/07 14:16:09;;;;;;;;;6.25;6.25;;;;;;;;3725478;38;19752;-62
2021/06/07 14:18:35;;;;;;;;;6.50;6.50;;;;;;;;3725504;37;19719;-63
2021/06/07 14:21:10;;;;;;;;;4.50;4.00;;;;;;;;3725651;37;19720;-63
2021/06/07 14:26:23;;;;;;;;;5.00;5.00;;;;;;;;3725328;37;20646;-61
2021/06/07 14:28:50;;;;;;;;;4.00;4.00;;;;;;;;3725453;38;20704;-60
2021/06/07 14:31:16;;;;;;;;;7.00;7.00;;;;;;;;3725430;37;20711;-62
2021/06/07 14:33:42;;;;;;;;;6.50;6.50;;;;;;;;3725166;38;19706;-61
2021/06/07 14:36:11;;;;;;;;;4.50;4.50;;;;;;;;3725116;38;19725;-62
2021/06/07 14:38:37;;;;;;;;;4.50;4.50;;;;;;;;3725327;37;20686;-63
2021/06/07 14:41:07;;;;;;;;;7.00;7.00;;;;;;;;3726314;38;20709;-62
2021/06/07 14:43:36;;;;;;;;;7.00;7.00;;;;;;;;3726725;37;20702;-63
2021/06/07 14:46:03;;;;;;;;;6.50;6.50;;;;;;;;3725343;37;20711;-63
2021/06/07 14:48:29;;;;;;;;;5.75;5.75;;;;;;;;3725294;37;20687;-63
2021/06/07 14:50:56;;;;;;;;;4.75;4.75;;;;;;;;3725254;38;20682;-61
2021/06/07 14:53:23;;;;;;;;;5.00;5.00;;;;;;;;3725122;37;20655;-62
2021/06/07 14:55:50;;;;;;;;;5.25;5.25;;;;;;;;3725136;38;20699;-61
2021/06/07 14:58:19;;;;;;;;;6.50;6.50;;;;;;;;3725099;37;20689;-62
2021/06/07 15:00:45;;;;;;;;;6.50;6.50;;;;;;;;3724664;37;20603;-61